Time;durP1;ratioP1;P1;durP2;ratioP2;P2;SDS_P1;SDS_P2;PMS_P1;PMS_P2;Temp;Humidity;BMP_temperature;BMP_pressure;BME280_temperature;BME280_humidity;BME280_pressure;Samples;Min_cycle;Max_cycle;Signal;HPM_P1;HPM_P2
2022/08/08 00:00:16;;;;;;;0.10;0.10;;;;;;;22.92;54.73;101990.28;5124336;27;20142;-38
2022/08/08 00:03:18;;;;;;;0.10;0.10;;;;;;;22.91;54.40;101985.84;5112517;27;20042;-38
2022/08/08 00:06:02;;;;;;;0.10;0.10;;;;;;;22.91;54.86;101991.41;5128207;27;20047;-36
2022/08/08 00:08:49;;;;;;;0.10;0.10;;;;;;;22.91;54.62;101992.22;5145098;27;20035;-37
2022/08/08 00:11:37;;;;;;;0.10;0.10;;;;;;;22.91;54.86;101980.28;5124209;27;20129;-39
2022/08/08 00:14:47;;;;;;;0.10;0.10;;;;;;;22.91;54.41;101986.66;5100481;27;20051;-38
2022/08/08 00:17:48;;;;;;;0.10;0.10;;;;;;;22.92;54.48;101974.44;5143630;27;20043;-38
2022/08/08 00:20:51;;;;;;;0.10;0.10;;;;;;;22.91;54.73;101975.56;5128477;27;20495;-38
2022/08/08 00:23:27;;;;;;;0.10;0.10;;;;;;;22.92;54.91;101976.38;5129794;27;20180;-38
2022/08/08 00:26:10;;;;;;;0.10;0.10;;;;;;;22.91;54.78;101972.78;5124057;27;20433;-38
2022/08/08 00:28:42;;;;;;;0.10;0.10;;;;;;;22.91;54.74;101967.22;5141222;27;20054;-39
2022/08/08 00:31:15;;;;;;;0.10;0.10;;;;;;;22.92;54.87;101973.59;5143953;27;20039;-38
2022/08/08 00:36:48;;;;;;;0.10;0.10;;;;;;;22.91;54.89;101983.06;5168022;27;20194;-38
2022/08/08 00:39:26;;;;;;;0.10;0.10;;;;;;;22.91;54.66;101983.06;5149346;27;20125;-38
2022/08/08 00:42:51;;;;;;;0.10;0.10;;;;;;;22.90;54.52;101975.84;5147806;27;20487;-38
2022/08/08 00:45:54;;;;;;;0.10;0.10;;;;;;;22.90;54.58;101982.22;5136841;27;20042;-38
2022/08/08 00:48:50;;;;;;;0.10;0.10;;;;;;;22.90;54.78;101982.22;5150386;27;20100;-38
2022/08/08 00:52:03;;;;;;;0.10;0.10;;;;;;;22.91;54.71;101988.63;5148101;27;20047;-38
2022/08/08 00:54:55;;;;;;;0.10;0.10;;;;;;;22.90;54.91;101981.41;5152255;27;20130;-39
2022/08/08 00:57:53;;;;;;;0.10;0.10;;;;;;;22.90;54.33;101982.22;5133080;27;20043;-39
2022/08/08 01:00:27;;;;;;;0.10;0.10;;;;;;;22.91;54.59;101989.44;5148750;27;20430;-37
2022/08/08 01:03:32;;;;;;;0.10;0.10;;;;;;;22.91;54.70;101985.84;5164271;27;20078;-38
2022/08/08 01:06:58;;;;;;;0.10;0.10;;;;;;;22.91;54.69;101986.66;5138695;27;20050;-37
2022/08/08 01:10:02;;;;;;;0.10;0.10;;;;;;;22.91;54.71;101985.84;5138532;27;20046;-38
2022/08/08 01:12:48;;;;;;;0.10;0.10;;;;;;;22.90;54.91;101998.91;5163289;27;20034;-38
2022/08/08 01:15:41;;;;;;;0.10;0.10;;;;;;;22.91;54.81;101994.16;5160688;27;20130;-38
2022/08/08 01:18:25;;;;;;;0.10;0.10;;;;;;;22.91;54.82;101991.41;5147338;27;20485;-37
2022/08/08 01:21:31;;;;;;;0.10;0.10;;;;;;;22.91;54.44;101988.63;5151480;27;20038;-38
2022/08/08 01:24:56;;;;;;;0.10;0.10;;;;;;;22.90;54.56;101990.56;5143505;27;20042;-38
2022/08/08 01:28:02;;;;;;;0.10;0.10;;;;;;;22.90;54.89;101987.78;5140850;27;20070;-35
2022/08/08 01:33:29;;;;;;;0.10;0.10;;;;;;;22.92;54.83;101980.00;5179751;27;20205;-39
2022/08/08 01:36:41;;;;;;;0.10;0.10;;;;;;;22.91;54.73;101981.09;5135190;27;20038;-38
2022/08/08 01:42:35;;;;;;;0.10;0.10;;;;;;;22.91;54.74;101977.50;5163372;27;20125;-39
2022/08/08 01:45:17;;;;;;;0.10;0.10;;;;;;;22.90;54.54;101976.69;5144652;27;20046;-39
2022/08/08 01:48:27;;;;;;;0.10;0.10;;;;;;;22.91;54.56;101977.50;5150146;27;20046;-39
2022/08/08 01:51:13;;;;;;;0.10;0.10;;;;;;;22.91;54.75;101975.56;5135488;27;20042;-38
2022/08/08 01:54:39;;;;;;;0.10;0.10;;;;;;;22.90;54.49;101973.91;5120697;27;20408;-38
2022/08/08 01:57:50;;;;;;;0.10;0.10;;;;;;;22.90;54.54;101971.13;5128446;27;20066;-38
2022/08/08 02:00:45;;;;;;;0.10;0.10;;;;;;;22.91;54.69;101977.50;5123036;27;20046;-38
2022/08/08 02:03:38;;;;;;;0.10;0.10;;;;;;;22.91;54.55;101977.50;5112495;27;20043;-38
2022/08/08 02:07:03;;;;;;;0.10;0.10;;;;;;;22.90;54.46;101982.22;5133385;27;20103;-39
2022/08/08 02:10:10;;;;;;;0.10;0.10;;;;;;;22.90;54.87;101979.44;5131836;27;20042;-39
2022/08/08 02:13:07;;;;;;;0.10;0.10;;;;;;;22.91;54.15;101986.66;5122068;27;20114;-39
2022/08/08 02:16:30;;;;;;;0.10;0.10;;;;;;;22.91;54.75;101985.84;5125023;27;20046;-39
2022/08/08 02:19:06;;;;;;;0.10;0.10;;;;;;;22.91;54.87;101983.06;5137798;27;20655;-39
2022/08/08 02:22:35;;;;;;;0.10;0.10;;;;;;;22.91;54.32;101988.63;5137596;27;20466;-39
2022/08/08 02:25:19;;;;;;;0.10;0.10;;;;;;;22.90;54.22;101982.22;5120786;27;20096;-39
2022/08/08 02:28:09;;;;;;;0.10;0.10;;;;;;;22.91;54.34;101983.88;5132518;27;20148;-39
2022/08/08 02:31:01;;;;;;;0.10;0.10;;;;;;;22.91;54.37;101977.50;5136363;27;20047;-39
2022/08/08 02:33:40;;;;;;;0.10;0.10;;;;;;;22.91;54.37;101983.88;5133359;27;20130;-39
2022/08/08 02:37:05;;;;;;;0.10;0.10;;;;;;;22.91;54.33;101983.06;5117960;27;20066;-37
2022/08/08 02:40:08;;;;;;;0.10;0.10;;;;;;;22.91;54.46;101983.06;5122543;27;20066;-37
2022/08/08 02:43:09;;;;;;;0.10;0.10;;;;;;;22.91;54.11;101977.50;5130712;27;20073;-37
2022/08/08 02:46:32;;;;;;;0.10;0.10;;;;;;;22.91;54.41;101974.72;5122598;27;20043;-39
2022/08/08 02:49:32;;;;;;;0.10;0.10;;;;;;;22.91;54.23;101977.50;5138806;27;20475;-39
2022/08/08 02:52:47;;;;;;;0.10;0.10;;;;;;;22.90;54.49;101979.44;5129622;27;20066;-38
2022/08/08 02:58:54;;;;;;;0.10;0.10;;;;;;;22.90;54.22;101979.44;5173561;27;20587;-38
2022/08/08 03:01:53;;;;;;;0.10;0.10;;;;;;;22.90;54.22;101979.44;5135832;27;20066;-39
2022/08/08 03:04:52;;;;;;;0.10;0.10;;;;;;;22.91;54.14;101980.28;5137461;27;20045;-38
2022/08/08 03:08:14;;;;;;;0.10;0.10;;;;;;;22.90;53.94;101976.69;5139627;27;20043;-38
2022/08/08 03:11:08;;;;;;;0.10;0.10;;;;;;;22.91;54.37;101980.28;5133383;27;20525;-38
2022/08/08 03:14:24;;;;;;;0.10;0.10;;;;;;;22.91;54.28;101980.28;5137884;27;20559;-39
2022/08/08 03:17:18;;;;;;;0.10;0.10;;;;;;;22.91;53.97;101972.78;5124651;27;20454;-37
2022/08/08 03:20:12;;;;;;;0.10;0.10;;;;;;;22.92;54.01;101979.16;5155971;27;20043;-39
2022/08/08 03:22:47;;;;;;;0.10;0.10;;;;;;;22.90;54.34;101979.44;5149652;27;20500;-38
2022/08/08 03:25:14;;;;;;;0.10;0.10;;;;;;;22.91;54.23;101978.34;5132573;27;20081;-38
2022/08/08 03:28:01;;;;;;;0.10;0.10;;;;;;;22.91;54.44;101981.09;5162547;27;20070;-38
2022/08/08 03:30:27;;;;;;;0.10;0.10;;;;;;;22.91;54.44;101983.06;5134999;27;20057;-38
2022/08/08 03:33:25;;;;;;;0.10;0.10;;;;;;;22.90;54.47;101984.19;5154467;27;20034;-39
2022/08/08 03:35:59;;;;;;;0.10;0.10;;;;;;;22.90;54.02;101981.41;5116292;27;20055;-39
2022/08/08 03:38:26;;;;;;;0.10;0.10;;;;;;;22.90;54.20;101987.78;5157653;27;20050;-38
2022/08/08 03:41:12;;;;;;;0.10;0.10;;;;;;;22.91;54.18;101988.63;5135133;27;20063;-38
2022/08/08 03:43:58;;;;;;;0.10;0.10;;;;;;;22.91;53.99;101988.63;5120519;27;20048;-38
2022/08/08 03:46:25;;;;;;;0.10;0.10;;;;;;;22.92;54.11;101998.59;5135353;27;20188;-38
2022/08/08 03:48:59;;;;;;;0.10;0.10;;;;;;;22.92;54.22;102001.38;5112771;27;20095;-37
2022/08/08 03:51:46;;;;;;;0.10;0.10;;;;;;;22.90;54.02;101998.91;5113128;27;20050;-37
2022/08/08 03:54:18;;;;;;;0.10;0.10;;;;;;;22.91;53.95;102000.56;5118302;27;20050;-38
2022/08/08 03:57:12;;;;;;;0.10;0.10;;;;;;;22.91;54.45;102016.41;5102701;27;20496;-37
2022/08/08 03:59:58;;;;;;;0.10;0.10;;;;;;;22.90;54.67;102014.72;5104712;27;20076;-38
2022/08/08 04:02:36;;;;;;;0.10;0.10;;;;;;;22.91;54.61;102019.16;5135467;27;20070;-39
2022/08/08 04:05:17;;;;;;;0.10;0.10;;;;;;;22.90;54.18;102021.13;5129870;27;20122;-38
2022/08/08 04:07:48;;;;;;;0.10;0.10;;;;;;;22.90;54.07;102028.63;5128125;27;20047;-38
2022/08/08 04:10:16;;;;;;;0.10;0.10;;;;;;;22.90;54.16;102028.63;5114787;28;20137;-39
2022/08/08 04:12:42;;;;;;;0.10;0.10;;;;;;;22.90;54.35;102026.66;5118185;28;20143;-38
2022/08/08 04:15:08;;;;;;;0.10;0.10;;;;;;;22.90;54.59;102021.13;5121627;28;20039;-39
2022/08/08 04:17:36;;;;;;;0.10;0.10;;;;;;;22.90;54.08;102026.66;5119151;28;20466;-39
2022/08/08 04:20:22;;;;;;;0.10;0.10;;;;;;;22.91;53.83;102028.34;5103813;28;20104;-38
2022/08/08 04:22:55;;;;;;;0.10;0.10;;;;;;;22.90;54.21;102026.66;5115342;28;20551;-38
2022/08/08 04:25:23;;;;;;;0.10;0.10;;;;;;;22.90;54.25;102029.44;5120712;28;20044;-39
2022/08/08 04:27:55;;;;;;;0.10;0.10;;;;;;;22.89;54.07;102027.75;5101047;28;20039;-38
2022/08/08 04:30:41;;;;;;;0.10;0.10;;;;;;;22.91;54.28;102028.34;5088399;28;20500;-38
2022/08/08 04:33:10;;;;;;;0.10;0.10;;;;;;;22.92;53.95;102034.72;5119483;28;20043;-37
2022/08/08 04:35:35;;;;;;;0.10;0.10;;;;;;;22.91;54.03;102033.06;5120339;28;20047;-38
2022/08/08 04:38:05;;;;;;;0.10;0.10;;;;;;;22.92;54.91;102037.50;5120482;28;20050;-39
2022/08/08 04:40:35;;;;;;;0.10;0.10;;;;;;;22.91;54.29;102044.16;5116331;28;20047;-38
2022/08/08 04:43:01;;;;;;;0.10;0.10;;;;;;;22.89;54.09;102038.88;5116399;28;20047;-39
2022/08/08 04:45:27;;;;;;;0.10;0.10;;;;;;;22.92;54.12;102043.06;5098301;28;20098;-39
2022/08/08 04:47:55;;;;;;;0.10;0.10;;;;;;;22.92;54.07;102041.09;5113158;28;20358;-38
2022/08/08 04:50:21;;;;;;;0.10;0.10;;;;;;;22.93;53.88;102039.19;5099332;28;20067;-37
2022/08/08 04:52:55;;;;;;;0.10;0.10;;;;;;;22.91;53.95;102036.66;5117961;28;20481;-38
2022/08/08 04:55:26;;;;;;;0.10;0.10;;;;;;;22.91;53.80;102039.44;5114968;28;20486;-37
2022/08/08 04:58:03;;;;;;;0.10;0.10;;;;;;;22.93;53.39;102047.50;5096738;28;20048;-38
2022/08/08 05:00:36;;;;;;;0.10;0.10;;;;;;;22.93;53.45;102041.97;5113649;28;20040;-37
2022/08/08 05:03:02;;;;;;;0.10;0.10;;;;;;;22.92;52.82;102037.50;5113790;28;20065;-38
2022/08/08 05:05:31;;;;;;;0.10;0.10;;;;;;;22.91;52.15;102046.94;5113314;28;20055;-39
2022/08/08 05:08:12;;;;;;;0.10;0.10;;;;;;;22.90;51.45;102042.50;5113979;28;20040;-38
2022/08/08 05:10:38;;;;;;;0.10;0.10;;;;;;;22.89;50.68;102051.94;5119950;28;20109;-38
2022/08/08 05:13:04;;;;;;;0.10;0.10;;;;;;;22.88;50.74;102045.50;5119531;28;20055;-38
2022/08/08 05:15:42;;;;;;;0.10;0.10;;;;;;;22.90;51.12;102042.50;5109634;28;20047;-36
2022/08/08 05:18:28;;;;;;;0.10;0.10;;;;;;;22.88;50.30;102041.91;5092186;28;20043;-38
2022/08/08 05:20:54;;;;;;;0.10;0.10;;;;;;;22.90;50.39;102043.34;5108516;28;20131;-39
2022/08/08 05:23:20;;;;;;;0.10;0.10;;;;;;;22.48;48.63;102043.59;5112512;28;20044;-38
2022/08/08 05:25:48;;;;;;;0.10;0.10;;;;;;;22.73;49.54;102043.59;5114812;28;21057;-39
2022/08/08 05:28:14;;;;;;;0.10;0.10;;;;;;;22.83;49.53;102039.13;5108937;28;20047;-39
2022/08/08 05:30:40;;;;;;;0.10;0.10;;;;;;;22.87;49.66;102043.03;5111609;28;20051;-36
2022/08/08 05:33:12;;;;;;;0.10;0.10;;;;;;;22.90;49.87;102042.50;5115716;28;20071;-37
2022/08/08 05:35:41;;;;;;;0.10;0.10;;;;;;;22.87;50.23;102043.84;5114440;28;20088;-37
2022/08/08 05:38:07;;;;;;;0.10;0.10;;;;;;;22.89;50.03;102047.22;5093235;28;20066;-37
2022/08/08 05:40:53;;;;;;;0.10;0.10;;;;;;;22.72;47.92;102049.44;5088930;28;20051;-40
2022/08/08 05:43:26;;;;;;;0.10;0.10;;;;;;;22.77;48.29;102046.66;5109191;28;20047;-36
2022/08/08 05:46:07;;;;;;;0.10;0.10;;;;;;;22.85;48.44;102048.88;5096572;28;20071;-37
2022/08/08 05:48:34;;;;;;;0.10;0.10;;;;;;;22.87;48.51;102048.59;5116968;28;20047;-39
2022/08/08 05:51:01;;;;;;;0.10;0.10;;;;;;;22.86;48.41;102052.47;5110344;28;20047;-39
2022/08/08 05:53:40;;;;;;;0.10;0.10;;;;;;;22.85;48.35;102056.38;5111234;28;20047;-40
2022/08/08 05:56:27;;;;;;;0.10;0.10;;;;;;;22.85;48.47;102056.38;5098347;28;20047;-39
2022/08/08 05:59:03;;;;;;;0.10;0.10;;;;;;;22.87;48.67;102065.25;5113261;28;20043;-39
2022/08/08 06:01:29;;;;;;;0.10;0.10;;;;;;;22.88;48.59;102066.91;5108509;28;20047;-36
2022/08/08 06:04:18;;;;;;;0.10;0.10;;;;;;;22.83;48.32;102056.63;5082594;28;20092;-40
2022/08/08 06:06:51;;;;;;;0.10;0.10;;;;;;;22.84;48.49;102055.53;5097280;28;20077;-38
2022/08/08 06:09:23;;;;;;;0.10;0.10;;;;;;;22.86;48.34;102060.81;5095530;28;20071;-41
2022/08/08 06:12:08;;;;;;;0.10;0.10;;;;;;;22.86;49.11;102069.97;5082081;28;20088;-40
2022/08/08 06:14:40;;;;;;;0.10;0.10;;;;;;;22.87;48.32;102065.25;5115408;28;20092;-41
2022/08/08 06:17:14;;;;;;;0.10;0.10;;;;;;;22.90;48.57;102070.28;5108968;28;20081;-40
2022/08/08 06:19:46;;;;;;;0.10;0.10;;;;;;;22.90;49.20;102071.13;5091950;28;20079;-39
2022/08/08 06:22:12;;;;;;;0.10;0.10;;;;;;;22.91;49.32;102075.56;5110986;28;20932;-39
2022/08/08 06:24:58;;;;;;;0.10;0.10;;;;;;;22.91;49.38;102081.09;5068481;28;20047;-37
2022/08/08 06:30:18;;;;;;;0.10;0.10;;;;;;;22.93;49.70;102087.25;5144851;27;20140;-36
2022/08/08 06:32:56;;;;;;;0.10;0.10;;;;;;;22.94;49.24;102085.28;5125817;27;20047;-41
2022/08/08 06:35:22;;;;;;;0.10;0.10;;;;;;;22.93;49.02;102086.41;5138451;27;20642;-40
2022/08/08 06:38:09;;;;;;;0.10;0.10;;;;;;;22.91;49.04;102086.66;5118111;27;20061;-40
2022/08/08 06:40:41;;;;;;;0.10;0.10;;;;;;;22.49;48.22;102084.94;5136946;27;20618;-37
2022/08/08 06:43:20;;;;;;;0.10;0.10;;;;;;;22.35;48.07;102088.53;5135451;27;20103;-37
2022/08/08 06:45:59;;;;;;;0.10;0.10;;;;;;;22.24;48.42;102087.69;5106403;27;20049;-38
2022/08/08 06:48:24;;;;;;;0.10;0.10;;;;;;;22.13;48.47;102088.75;5118414;27;20051;-39
2022/08/08 06:50:52;;;;;;;0.10;0.10;;;;;;;22.18;48.37;102097.09;5131236;27;20122;-37
2022/08/08 06:53:19;;;;;;;0.10;0.10;;;;;;;22.11;48.28;102100.09;5132447;27;20051;-38
2022/08/08 06:55:46;;;;;;;0.10;0.10;;;;;;;22.04;48.35;102099.50;5126450;27;20053;-39
2022/08/08 06:58:28;;;;;;;0.10;0.10;;;;;;;22.08;48.42;102094.25;5134468;27;20149;-38
2022/08/08 07:01:00;;;;;;;0.10;0.10;;;;;;;22.13;48.31;102088.75;5133309;27;20070;-38
2022/08/08 07:03:33;;;;;;;0.10;0.10;;;;;;;22.10;48.23;102098.41;5128073;27;20134;-38
2022/08/08 07:06:22;;;;;;;0.10;0.10;;;;;;;22.15;48.28;102100.41;5108706;27;20058;-40
2022/08/08 07:08:57;;;;;;;0.10;0.10;;;;;;;22.14;48.24;102099.56;5133766;27;20039;-39
2022/08/08 07:11:28;;;;;;;0.10;0.10;;;;;;;22.22;48.28;102104.59;5131150;27;20148;-38
2022/08/08 07:14:15;;;;;;;0.10;0.10;;;;;;;22.19;48.19;102107.94;5136704;27;20057;-38
2022/08/08 07:17:10;;;;;;;0.10;0.10;;;;;;;22.22;48.33;102106.53;5114279;27;20492;-38
2022/08/08 07:20:02;;;;;;;0.10;0.10;;;;;;;22.24;47.83;102112.66;5129353;27;20133;-39
2022/08/08 07:22:41;;;;;;;0.10;0.10;;;;;;;22.18;47.70;102111.78;5127803;27;20133;-39
2022/08/08 07:25:10;;;;;;;0.10;0.10;;;;;;;22.12;48.04;102121.22;5136663;27;20134;-40
2022/08/08 07:27:42;;;;;;;0.10;0.10;;;;;;;22.15;48.09;102115.13;5135209;27;20138;-39
2022/08/08 07:30:27;;;;;;;0.10;0.10;;;;;;;22.09;47.81;102113.41;5120576;27;20050;-38
2022/08/08 07:32:53;;;;;;;0.10;0.10;;;;;;;22.14;47.70;102118.16;5135758;27;20745;-38
2022/08/08 07:35:20;;;;;;;0.10;0.10;;;;;;;22.13;47.56;102113.72;5139511;27;20392;-39
2022/08/08 07:37:49;;;;;;;0.13;0.13;;;;;;;22.13;47.51;102116.50;5118339;27;20126;-39
2022/08/08 07:40:34;;;;;;;0.10;0.10;;;;;;;22.21;47.46;102124.31;5125932;27;20067;-38
2022/08/08 07:43:03;;;;;;;0.10;0.10;;;;;;;22.38;47.23;102118.53;5120622;27;20130;-38
2022/08/08 07:45:34;;;;;;;0.10;0.10;;;;;;;22.34;47.54;102126.56;5111949;27;20078;-42
2022/08/08 07:48:20;;;;;;;0.10;0.10;;;;;;;22.28;47.14;102125.72;5102658;28;20058;-38
2022/08/08 07:50:49;;;;;;;0.10;0.10;;;;;;;22.33;46.72;102129.63;5120657;28;20044;-38
2022/08/08 07:53:20;;;;;;;0.10;0.10;;;;;;;22.29;46.54;102126.56;5120245;28;20120;-38
2022/08/08 07:56:08;;;;;;;0.10;0.10;;;;;;;22.23;47.23;102125.69;5098219;28;20378;-38
2022/08/08 07:58:41;;;;;;;0.10;0.10;;;;;;;22.28;47.31;102134.03;5120533;28;20075;-37
2022/08/08 08:01:10;;;;;;;0.10;0.10;;;;;;;22.39;47.07;102134.88;5122522;28;20095;-39
2022/08/08 08:03:55;;;;;;;0.10;0.10;;;;;;;22.32;47.40;102130.69;5121858;27;20051;-38
2022/08/08 08:06:25;;;;;;;0.10;0.10;;;;;;;22.30;47.38;102130.97;5121557;28;20048;-39
2022/08/08 08:08:56;;;;;;;0.10;0.10;;;;;;;22.34;47.79;102134.06;5122147;27;20043;-38
2022/08/08 08:11:22;;;;;;;0.10;0.10;;;;;;;22.37;47.83;102137.13;5122071;27;20039;-38
2022/08/08 08:13:59;;;;;;;0.10;0.10;;;;;;;22.42;48.08;102141.84;5100205;27;20081;-38
2022/08/08 08:16:38;;;;;;;0.10;0.10;;;;;;;22.38;48.07;102132.41;5121351;27;20062;-38
2022/08/08 08:19:08;;;;;;;0.20;0.20;;;;;;;22.39;47.79;102129.34;5105682;28;20078;-38
2022/08/08 08:21:38;;;;;;;0.10;0.10;;;;;;;22.34;48.04;102137.66;5117970;27;20126;-38
2022/08/08 08:24:23;;;;;;;0.10;0.10;;;;;;;22.36;48.40;102134.59;5102587;28;20043;-38
2022/08/08 08:26:58;;;;;;;0.10;0.10;;;;;;;22.37;48.33;102137.13;5102275;27;20054;-39
2022/08/08 08:29:25;;;;;;;0.10;0.10;;;;;;;22.32;48.62;102133.47;5117606;27;20084;-39
2022/08/08 08:31:53;;;;;;;0.10;0.10;;;;;;;22.32;48.60;102139.84;5098150;28;20367;-39
2022/08/08 08:34:24;;;;;;;1.65;0.20;;;;;;;22.39;47.50;102136.84;5106992;28;20054;-40
2022/08/08 08:37:01;;;;;;;0.10;0.10;;;;;;;22.41;46.42;102137.38;5114750;28;20063;-38
2022/08/08 08:39:33;;;;;;;0.10;0.10;;;;;;;22.45;46.44;102131.03;5104154;28;20396;-39
2022/08/08 08:42:18;;;;;;;0.10;0.10;;;;;;;22.47;46.28;102131.59;5108967;28;20039;-38
2022/08/08 08:44:54;;;;;;;0.10;0.10;;;;;;;22.52;46.17;102134.38;5121436;28;20087;-38
2022/08/08 08:47:21;;;;;;;0.10;0.10;;;;;;;22.48;46.21;102133.25;5121184;28;20040;-40
2022/08/08 08:49:47;;;;;;;0.10;0.10;;;;;;;22.51;46.54;102138.25;5119335;28;20051;-38
2022/08/08 08:52:16;;;;;;;0.10;0.10;;;;;;;22.55;47.08;102127.44;5117182;27;20036;-38
2022/08/08 08:54:46;;;;;;;0.10;0.10;;;;;;;22.53;46.84;102130.47;5097852;28;20039;-39
2022/08/08 08:57:14;;;;;;;0.20;0.20;;;;;;;22.46;46.76;102131.88;5115597;28;20072;-39
2022/08/08 08:59:43;;;;;;;0.20;0.20;;;;;;;22.45;47.60;102138.50;5116605;27;20058;-41
2022/08/08 09:02:29;;;;;;;0.10;0.10;;;;;;;22.47;47.59;102137.13;5103742;27;20039;-39
2022/08/08 09:04:58;;;;;;;0.10;0.10;;;;;;;22.52;46.84;102133.53;5110546;27;20142;-37
2022/08/08 09:07:25;;;;;;;0.10;0.10;;;;;;;22.48;46.41;102140.75;5117808;28;20465;-38
2022/08/08 09:10:13;;;;;;;0.10;0.10;;;;;;;22.41;46.99;102142.94;5103837;28;20104;-38
2022/08/08 09:12:45;;;;;;;0.10;0.10;;;;;;;22.39;47.41;102134.06;5119539;27;20072;-40
2022/08/08 09:15:11;;;;;;;0.10;0.10;;;;;;;22.41;47.32;102138.25;5120157;27;20058;-39
2022/08/08 09:17:39;;;;;;;0.10;0.10;;;;;;;22.38;48.19;102141.56;5118937;27;20050;-38
2022/08/08 09:20:08;;;;;;;0.10;0.10;;;;;;;22.38;47.84;102133.22;5100265;28;20043;-38
2022/08/08 09:22:55;;;;;;;0.10;0.10;;;;;;;22.36;47.85;102134.59;5099811;28;20466;-38
2022/08/08 09:25:24;;;;;;;0.10;0.10;;;;;;;22.35;47.72;102141.25;5122861;28;20043;-38
2022/08/08 09:28:01;;;;;;;0.10;0.10;;;;;;;22.33;47.37;102140.72;5119001;28;20095;-38
2022/08/08 09:30:30;;;;;;;0.10;0.10;;;;;;;22.39;46.95;102137.66;5118158;27;20443;-39
2022/08/08 09:32:58;;;;;;;0.10;0.10;;;;;;;22.44;47.04;102136.84;5100025;28;20558;-38
2022/08/08 09:35:46;;;;;;;0.10;0.10;;;;;;;22.44;46.94;102126.56;5096920;28;20055;-38
2022/08/08 09:38:42;;;;;;;0.10;0.10;;;;;;;22.42;46.96;102131.56;5115539;27;20039;-38
2022/08/08 09:41:32;;;;;;;0.10;0.10;;;;;;;22.45;47.30;102124.63;5111243;28;20043;-38
2022/08/08 09:44:19;;;;;;;0.10;0.10;;;;;;;22.46;47.11;102126.31;5102086;28;20615;-38
2022/08/08 09:47:02;;;;;;;0.10;0.10;;;;;;;;;;5120477;27;20449;-38
2022/08/08 09:49:48;;;;;;;0.10;0.10;;;;;;;22.44;47.04;102131.28;5105282;28;20043;-38
2022/08/08 09:52:21;;;;;;;0.10;0.10;;;;;;;22.49;46.84;102131.28;5095718;28;20580;-39
2022/08/08 09:55:08;;;;;;;0.10;0.10;;;;;;;22.49;46.81;102129.34;5106689;28;20054;-38
2022/08/08 09:57:39;;;;;;;0.10;0.10;;;;;;;22.53;46.02;102132.41;5102529;28;20062;-38
2022/08/08 10:00:13;;;;;;;0.10;0.10;;;;;;;22.53;45.04;102126.88;5120265;27;20086;-41
2022/08/08 10:03:02;;;;;;;0.10;0.10;;;;;;;22.52;45.20;102131.59;5089325;27;20048;-38
2022/08/08 10:05:34;;;;;;;0.20;0.20;;;;;;;22.49;45.69;102137.69;5099213;28;20055;-38
2022/08/08 10:08:00;;;;;;;0.10;0.10;;;;;;;22.51;45.77;102135.47;5093935;28;20443;-41
2022/08/08 10:13:18;;;;;;;0.10;0.10;;;;;;;22.40;45.52;102131.00;5155553;27;20132;-37
2022/08/08 10:15:49;;;;;;;0.10;0.10;;;;;;;22.43;45.47;102121.31;5133616;27;20051;-37
2022/08/08 10:18:28;;;;;;;0.10;0.10;;;;;;;22.52;45.85;102125.22;5134651;27;20086;-37
2022/08/08 10:21:06;;;;;;;0.10;0.10;;;;;;;22.58;44.41;102132.41;5117487;27;20050;-37
2022/08/08 10:23:49;;;;;;;0.10;0.10;;;;;;;22.66;44.51;102129.09;5127957;27;20813;-38
2022/08/08 10:26:30;;;;;;;0.10;0.10;;;;;;;22.72;45.06;102122.47;5130209;27;20047;-37
2022/08/08 10:29:20;;;;;;;0.10;0.10;;;;;;;22.74;45.30;102119.41;5121908;27;20062;-39
2022/08/08 10:34:50;;;;;;;0.10;0.10;;;;;;;22.74;45.50;102122.19;5105729;27;20047;-39
2022/08/08 10:37:28;;;;;;;0.10;0.10;;;;;;;22.72;45.75;102121.63;5102154;27;20047;-39
2022/08/08 10:39:56;;;;;;;0.10;0.10;;;;;;;22.69;45.44;102117.47;5138614;27;20054;-43
2022/08/08 10:42:28;;;;;;;0.10;0.10;;;;;;;22.71;45.26;102117.16;5120716;27;20346;-40
2022/08/08 10:45:04;;;;;;;0.10;0.10;;;;;;;22.68;45.72;102115.78;5116346;27;20467;-38
2022/08/08 10:47:34;;;;;;;0.10;0.10;;;;;;;22.68;46.05;102115.78;5135038;27;20039;-39
2022/08/08 10:50:10;;;;;;;0.10;0.10;;;;;;;22.64;46.67;102117.47;5125242;27;20042;-37
2022/08/08 10:52:41;;;;;;;0.10;0.10;;;;;;;22.59;46.90;102117.44;5107694;27;20202;-39
2022/08/08 10:55:17;;;;;;;0.10;0.10;;;;;;;22.59;46.83;102113.84;5140855;27;20404;-39
2022/08/08 10:58:06;;;;;;;0.10;0.10;;;;;;;22.60;46.78;102118.28;5128770;27;20062;-40
2022/08/08 11:00:33;;;;;;;0.10;0.10;;;;;;;22.62;46.11;102110.50;5138302;27;20445;-39
2022/08/08 11:03:12;;;;;;;0.10;0.10;;;;;;;22.62;45.96;102107.72;5146337;27;20039;-40
2022/08/08 11:05:47;;;;;;;0.10;0.10;;;;;;;22.58;45.89;102106.59;5136793;27;20483;-40
2022/08/08 11:08:20;;;;;;;0.10;0.10;;;;;;;22.56;45.73;102104.13;5125686;27;20035;-39
2022/08/08 11:11:06;;;;;;;0.10;0.10;;;;;;;22.54;46.18;102106.34;5134689;27;20063;-40
2022/08/08 11:13:42;;;;;;;0.10;0.10;;;;;;;22.52;45.83;102101.06;5103799;27;20035;-39
2022/08/08 11:16:28;;;;;;;0.10;0.10;;;;;;;22.55;45.60;102099.69;5138438;27;20043;-42
2022/08/08 11:19:01;;;;;;;0.10;0.10;;;;;;;22.56;44.93;102100.50;5121386;27;20400;-41
2022/08/08 11:21:33;;;;;;;0.10;0.10;;;;;;;22.53;45.36;102090.78;5113865;27;20100;-40
2022/08/08 11:24:04;;;;;;;0.10;0.10;;;;;;;22.57;45.48;102089.13;5122145;27;20109;-37
2022/08/08 11:26:34;;;;;;;0.10;0.10;;;;;;;22.62;45.29;102094.66;5105574;28;20043;-39
2022/08/08 11:29:05;;;;;;;0.10;0.10;;;;;;;22.68;44.90;102092.75;5100722;27;20128;-40
2022/08/08 11:31:36;;;;;;;0.10;0.10;;;;;;;22.72;45.10;102091.09;5117362;28;20031;-39
2022/08/08 11:34:13;;;;;;;0.10;0.10;;;;;;;22.71;44.89;102089.41;5106332;28;20054;-40
2022/08/08 11:36:58;;;;;;;0.10;0.10;;;;;;;22.69;44.22;102095.25;5118965;28;20062;-41
2022/08/08 11:39:25;;;;;;;0.10;0.10;;;;;;;22.69;44.08;102094.41;5121478;28;20039;-41
2022/08/08 11:41:51;;;;;;;0.10;0.10;;;;;;;22.57;43.26;102091.06;5120293;28;20542;-43
2022/08/08 11:44:19;;;;;;;0.10;0.10;;;;;;;22.57;42.65;102099.41;5091227;28;20039;-44
2022/08/08 11:46:56;;;;;;;0.10;0.10;;;;;;;22.53;42.72;102099.09;5077048;28;20052;-44
2022/08/08 11:49:24;;;;;;;0.10;0.10;;;;;;;22.46;42.41;102093.84;5102181;28;20131;-44
2022/08/08 11:51:53;;;;;;;0.10;0.10;;;;;;;22.52;42.65;102094.66;5062920;28;20056;-43
2022/08/08 11:54:33;;;;;;;0.10;0.10;;;;;;;22.66;44.08;102097.72;5092308;28;20181;-43
2022/08/08 11:57:13;;;;;;;0.10;0.10;;;;;;;22.67;45.68;102088.31;5093305;28;21370;-41
2022/08/08 11:59:47;;;;;;;0.10;0.10;;;;;;;22.71;45.18;102083.84;5094339;28;20250;-43
2022/08/08 12:02:29;;;;;;;0.10;0.10;;;;;;;22.77;45.07;102088.31;5094478;28;20126;-44
2022/08/08 12:05:11;;;;;;;0.10;0.10;;;;;;;22.78;44.30;102085.25;5093634;28;20511;-43
2022/08/08 12:07:53;;;;;;;;;;;;;;;22.84;44.15;102085.25;5088969;28;20047;-45
2022/08/08 12:10:24;;;;;;;0.10;0.10;;;;;;;22.81;44.17;102086.66;5083536;28;20050;-43
2022/08/08 12:12:50;;;;;;;;;;;;;;;22.81;44.19;102075.53;5076371;28;20127;-45
2022/08/08 12:15:30;;;;;;;0.10;0.10;;;;;;;22.76;43.73;102078.31;5093989;28;19931;-43
2022/08/08 12:18:25;;;;;;;0.10;0.10;;;;;;;22.76;43.93;102076.38;5077265;28;20035;-44
2022/08/08 12:20:53;;;;;;;0.10;0.10;;;;;;;22.78;43.95;102073.31;5074982;28;20158;-43
2022/08/08 12:23:35;;;;;;;0.10;0.10;;;;;;;22.76;44.08;102075.53;5073538;28;20138;-43
2022/08/08 12:26:22;;;;;;;0.10;0.10;;;;;;;22.77;44.73;102066.91;5058879;28;20047;-44
2022/08/08 12:29:00;;;;;;;0.10;0.10;;;;;;;22.81;44.19;102069.16;5073626;28;20063;-45
2022/08/08 12:31:33;;;;;;;0.10;0.10;;;;;;;22.82;44.05;102066.09;5093437;28;20048;-45
2022/08/08 12:34:18;;;;;;;0.10;0.10;;;;;;;22.85;43.66;102067.50;5091570;27;20040;-44
2022/08/08 12:36:44;;;;;;;0.10;0.10;;;;;;;22.82;44.27;102065.25;5095102;28;20051;-44
2022/08/08 12:39:25;;;;;;;0.10;0.10;;;;;;;22.86;44.34;102069.97;5093285;28;20489;-45
2022/08/08 12:42:10;;;;;;;0.10;0.10;;;;;;;22.85;44.13;102068.31;5075775;28;20097;-43
2022/08/08 12:44:46;;;;;;;0.10;0.10;;;;;;;22.85;45.47;102064.72;5076240;28;20545;-43
2022/08/08 12:47:25;;;;;;;0.10;0.10;;;;;;;22.75;46.18;102062.75;5095423;28;20063;-44